createdAt,value
2019-01-28T00:02:23.972Z,2.30
2019-01-28T00:04:52.372Z,2.20
2019-01-28T00:07:20.828Z,2.20
2019-01-28T00:09:49.220Z,2.10
2019-01-28T00:12:17.608Z,2.10
2019-01-28T00:14:46.023Z,2.10
2019-01-28T00:17:14.380Z,2.10
2019-01-28T00:19:43.244Z,2.10
2019-01-28T00:22:11.631Z,2.10
2019-01-28T00:24:40.408Z,2.10
2019-01-28T00:27:08.780Z,2.10
2019-01-28T00:29:37.167Z,2.20
2019-01-28T00:32:05.829Z,2.20
2019-01-28T00:34:34.212Z,2.20
2019-01-28T00:37:02.611Z,2.20
2019-01-28T00:39:31.000Z,2.20
2019-01-28T00:41:59.368Z,2.10
2019-01-28T00:44:27.779Z,2.10
2019-01-28T00:46:56.235Z,2.10
2019-01-28T00:49:24.709Z,2.10
2019-01-28T00:51:53.460Z,2.10
2019-01-28T00:54:21.836Z,2.00
2019-01-28T00:56:50.218Z,2.00
2019-01-28T00:59:18.855Z,2.00
2019-01-28T01:01:47.255Z,2.00
2019-01-28T01:04:15.698Z,2.00
2019-01-28T01:06:44.089Z,2.00
2019-01-28T01:09:12.526Z,1.90
2019-01-28T01:11:40.923Z,1.90
2019-01-28T01:14:09.583Z,1.90
2019-01-28T01:16:37.971Z,1.90
2019-01-28T01:19:06.368Z,1.90
2019-01-28T01:21:34.757Z,2.00
2019-01-28T01:24:03.139Z,2.00
2019-01-28T01:26:31.540Z,2.00
2019-01-28T01:28:59.988Z,2.10
2019-01-28T01:31:28.384Z,2.10
2019-01-28T01:33:56.753Z,2.00
2019-01-28T01:36:25.139Z,2.00
2019-01-28T01:38:53.503Z,2.00
2019-01-28T01:41:21.899Z,2.00
2019-01-28T01:43:50.268Z,1.90
2019-01-28T01:46:19.031Z,1.90
2019-01-28T01:48:47.400Z,1.90
2019-01-28T01:51:15.789Z,1.90
2019-01-28T01:53:44.147Z,1.90
2019-01-28T01:56:12.585Z,1.90
2019-01-28T01:58:41.299Z,1.90
2019-01-28T02:01:09.835Z,1.80
2019-01-28T02:03:38.188Z,1.60
2019-01-28T02:06:06.568Z,1.50
2019-01-28T02:08:35.192Z,1.50
2019-01-28T02:11:03.637Z,1.50
2019-01-28T02:13:32.019Z,1.50
2019-01-28T02:16:00.386Z,1.40
2019-01-28T02:18:28.804Z,1.40
2019-01-28T02:20:57.556Z,1.30
2019-01-28T02:23:26.075Z,1.40
2019-01-28T02:25:54.448Z,1.40
2019-01-28T02:28:22.834Z,1.30
2019-01-28T02:30:51.277Z,1.40
2019-01-28T02:33:19.661Z,1.30
2019-01-28T02:35:48.024Z,1.30
2019-01-28T02:38:16.417Z,1.20
2019-01-28T02:40:44.783Z,1.20
2019-01-28T02:43:13.282Z,1.20
2019-01-28T02:45:41.649Z,1.10
2019-01-28T02:48:10.058Z,1.00
2019-01-28T02:50:38.630Z,1.00
2019-01-28T02:53:07.020Z,1.00
2019-01-28T02:55:35.387Z,1.00
2019-01-28T02:58:04.139Z,1.00
2019-01-28T03:00:32.808Z,1.00
2019-01-28T03:03:01.200Z,1.00
2019-01-28T03:05:29.565Z,1.10
2019-01-28T03:07:58.633Z,1.20
2019-01-28T03:10:27.223Z,1.20
2019-01-28T03:12:55.614Z,1.20
2019-01-28T03:15:23.976Z,1.20
2019-01-28T03:17:52.368Z,1.20
2019-01-28T03:20:20.744Z,1.30
2019-01-28T03:22:49.127Z,1.30
2019-01-28T03:25:18.541Z,1.30
2019-01-28T03:27:46.945Z,1.30
2019-01-28T03:30:17.487Z,1.30
2019-01-28T03:32:45.870Z,1.30
2019-01-28T03:35:14.320Z,1.20
2019-01-28T03:37:42.754Z,1.20
2019-01-28T03:40:13.984Z,1.20
2019-01-28T03:42:42.343Z,1.20
2019-01-28T03:45:13.528Z,1.20
2019-01-28T03:47:41.902Z,1.30
2019-01-28T03:50:15.695Z,1.30
2019-01-28T03:52:44.230Z,1.30
2019-01-28T03:55:13.307Z,1.20
2019-01-28T03:57:41.672Z,1.20
2019-01-28T04:00:24.581Z,1.20
2019-01-28T04:02:53.251Z,1.20
2019-01-28T04:05:21.720Z,1.30
2019-01-28T04:07:50.078Z,1.30
2019-01-28T04:10:20.797Z,1.20
2019-01-28T04:12:49.163Z,1.20
2019-01-28T04:15:22.208Z,1.00
2019-01-28T04:17:50.598Z,1.10
2019-01-28T04:20:20.259Z,1.10
2019-01-28T04:22:48.626Z,1.10
2019-01-28T04:25:17.045Z,1.20
2019-01-28T04:27:45.496Z,1.10
2019-01-28T04:30:16.430Z,1.20
2019-01-28T04:32:44.809Z,1.20
2019-01-28T04:35:13.195Z,1.20
2019-01-28T04:37:41.668Z,1.10
2019-01-28T04:40:12.313Z,1.20
2019-01-28T04:42:40.676Z,1.10
2019-01-28T04:45:15.704Z,1.20
2019-01-28T04:47:44.071Z,1.20
2019-01-28T04:50:15.264Z,1.30
2019-01-28T04:52:43.652Z,1.40
2019-01-28T04:55:13.592Z,1.40
2019-01-28T04:57:42.308Z,1.50
2019-01-28T05:00:13.336Z,1.50
2019-01-28T05:02:41.824Z,1.50
2019-01-28T05:05:10.208Z,1.50
2019-01-28T05:07:38.884Z,1.40
2019-01-28T05:10:10.540Z,1.30
2019-01-28T05:12:38.895Z,1.30
2019-01-28T05:15:09.399Z,1.20
2019-01-28T05:17:37.798Z,1.20
2019-01-28T05:20:09.400Z,1.20
2019-01-28T05:22:37.795Z,1.20
2019-01-28T05:25:11.660Z,1.20
2019-01-28T05:27:40.067Z,1.20
2019-01-28T05:30:11.724Z,1.20
2019-01-28T05:32:40.121Z,1.20
2019-01-28T05:35:11.424Z,1.20
2019-01-28T05:37:39.807Z,1.20
2019-01-28T05:40:11.443Z,1.20
2019-01-28T05:42:39.836Z,1.10
2019-01-28T05:45:11.708Z,1.10
2019-01-28T05:47:40.103Z,1.10
2019-01-28T05:50:10.124Z,1.00
2019-01-28T05:52:38.516Z,1.10
2019-01-28T05:55:09.541Z,1.10
2019-01-28T05:57:38.000Z,1.10
2019-01-28T06:00:13.288Z,1.20
2019-01-28T06:02:41.680Z,1.30
2019-01-28T06:05:10.224Z,1.30
2019-01-28T06:07:38.612Z,1.30
2019-01-28T06:10:13.068Z,1.30
2019-01-28T06:12:41.451Z,1.40
2019-01-28T06:15:30.950Z,1.40
2019-01-28T06:17:59.329Z,1.50
2019-01-28T06:20:27.693Z,1.40
2019-01-28T06:22:56.076Z,1.40
2019-01-28T06:25:24.827Z,1.40
2019-01-28T06:27:53.211Z,1.40
2019-01-28T06:30:41.277Z,1.30
2019-01-28T06:33:09.794Z,1.30
2019-01-28T06:35:38.160Z,1.40
2019-01-28T06:38:06.548Z,1.40
2019-01-28T06:40:35.572Z,1.40
2019-01-28T06:43:03.957Z,1.40
2019-01-28T06:45:32.327Z,1.30
2019-01-28T06:48:00.712Z,1.30
2019-01-28T06:50:29.102Z,1.30
2019-01-28T06:52:57.615Z,1.30
2019-01-28T06:55:25.985Z,1.30
2019-01-28T06:57:54.388Z,1.30
2019-01-28T07:00:28.388Z,1.30
2019-01-28T07:02:56.785Z,1.20
2019-01-28T07:05:25.168Z,1.20
2019-01-28T07:07:53.631Z,1.20
2019-01-28T07:10:22.125Z,1.20
2019-01-28T07:12:50.863Z,1.30
2019-01-28T07:15:20.983Z,1.20
2019-01-28T07:17:54.650Z,1.20
2019-01-28T07:20:22.362Z,1.30
2019-01-28T07:22:53.103Z,1.30
2019-01-28T07:25:21.492Z,1.30
2019-01-28T07:27:49.877Z,1.40
2019-01-28T07:30:32.583Z,1.40
2019-01-28T07:33:01.040Z,1.50
2019-01-28T07:35:29.427Z,1.60
2019-01-28T07:37:57.791Z,1.70
2019-01-28T07:40:26.183Z,1.80
2019-01-28T07:42:54.648Z,1.90
2019-01-28T07:45:31.422Z,2.00
2019-01-28T07:48:02.923Z,2.00
2019-01-28T07:50:29.969Z,2.10
2019-01-28T07:52:58.404Z,2.10
2019-01-28T07:55:26.808Z,2.40
2019-01-28T07:57:55.260Z,2.60
2019-01-28T08:00:26.189Z,3.30
2019-01-28T08:02:54.556Z,3.50
2019-01-28T08:05:22.939Z,3.90
2019-01-28T08:07:51.336Z,4.00
2019-01-28T08:10:21.000Z,4.00
2019-01-28T08:12:49.551Z,4.10
2019-01-28T08:15:20.320Z,4.30
2019-01-28T08:17:48.728Z,4.40
2019-01-28T08:20:18.367Z,4.10
2019-01-28T08:22:46.748Z,3.90
2019-01-28T08:25:16.871Z,3.80
2019-01-28T08:27:45.351Z,3.70
2019-01-28T08:30:17.103Z,3.40
2019-01-28T08:32:45.478Z,3.30
2019-01-28T08:35:13.844Z,3.30
2019-01-28T08:37:42.240Z,4.10
2019-01-28T08:40:13.546Z,5.20
2019-01-28T08:42:41.939Z,5.40
2019-01-28T08:45:12.322Z,5.20
2019-01-28T08:47:40.709Z,4.80
2019-01-28T08:50:15.093Z,5.20
2019-01-28T08:52:43.479Z,5.60
2019-01-28T08:55:15.040Z,6.70
2019-01-28T08:57:43.461Z,9.10
2019-01-28T09:00:15.053Z,12.10
2019-01-28T09:02:43.447Z,14.20
2019-01-28T09:05:12.759Z,15.70
2019-01-28T09:07:41.186Z,17.20
2019-01-28T09:10:12.967Z,18.60
2019-01-28T09:12:41.434Z,19.00
2019-01-28T09:15:13.123Z,17.70
2019-01-28T09:17:41.848Z,15.70
2019-01-28T09:20:13.346Z,15.60
2019-01-28T09:22:41.716Z,17.00
2019-01-28T09:25:11.657Z,16.60
2019-01-28T09:27:40.047Z,16.10
2019-01-28T09:30:11.779Z,17.00
2019-01-28T09:32:40.211Z,17.50
2019-01-28T09:35:10.025Z,17.10
2019-01-28T09:37:38.399Z,17.80
2019-01-28T09:40:21.289Z,18.40
2019-01-28T09:42:49.696Z,17.80
2019-01-28T09:45:23.768Z,17.10
2019-01-28T09:47:52.221Z,16.30
2019-01-28T09:50:20.588Z,15.30
2019-01-28T09:52:50.315Z,14.00
2019-01-28T09:55:18.871Z,13.70
2019-01-28T09:57:47.315Z,13.60
2019-01-28T10:00:36.620Z,13.50
2019-01-28T10:03:05.379Z,13.90
2019-01-28T10:05:33.767Z,13.30
2019-01-28T10:08:02.258Z,13.20
2019-01-28T10:10:30.631Z,12.30
2019-01-28T10:12:59.281Z,11.50
2019-01-28T10:15:28.968Z,10.90
2019-01-28T10:17:57.704Z,10.30
2019-01-28T10:20:34.805Z,9.40
2019-01-28T10:23:03.172Z,8.70
2019-01-28T10:25:31.959Z,8.20
2019-01-28T10:28:00.315Z,8.30
2019-01-28T10:30:34.612Z,8.00
2019-01-28T10:33:02.994Z,7.90
2019-01-28T10:35:31.645Z,7.60
2019-01-28T10:38:00.017Z,7.20
2019-01-28T10:40:30.440Z,6.70
2019-01-28T10:42:58.896Z,6.40
2019-01-28T10:45:27.307Z,6.10
2019-01-28T10:48:00.499Z,6.00
2019-01-28T10:50:27.003Z,6.10
2019-01-28T10:52:55.397Z,5.70
2019-01-28T10:55:24.808Z,5.50
2019-01-28T10:57:53.296Z,5.10
2019-01-28T11:00:30.881Z,4.90
2019-01-28T11:03:00.442Z,4.80
2019-01-28T11:05:28.805Z,4.50
2019-01-28T11:07:57.217Z,4.30
2019-01-28T11:10:27.546Z,4.30
2019-01-28T11:12:55.935Z,4.10
2019-01-28T11:15:27.112Z,4.00
2019-01-28T11:17:56.167Z,3.80
2019-01-28T11:20:25.139Z,3.80
2019-01-28T11:22:53.520Z,3.60
2019-01-28T11:25:24.721Z,3.60
2019-01-28T11:27:53.464Z,3.50
2019-01-28T11:30:29.396Z,3.50
2019-01-28T11:32:57.876Z,3.70
2019-01-28T11:35:26.348Z,3.90
2019-01-28T11:37:54.727Z,4.10
2019-01-28T11:40:23.552Z,4.30
2019-01-28T11:42:51.998Z,4.40
2019-01-28T11:45:49.054Z,4.70
2019-01-28T11:48:17.788Z,4.80
2019-01-28T11:50:46.177Z,4.60
2019-01-28T11:53:14.688Z,4.40
2019-01-28T11:55:43.061Z,4.40
2019-01-28T11:58:11.560Z,4.20
2019-01-28T12:00:59.606Z,4.20
2019-01-28T12:03:27.992Z,4.30
2019-01-28T12:05:56.376Z,4.30
2019-01-28T12:08:24.775Z,4.30
2019-01-28T12:10:53.140Z,4.20
2019-01-28T12:13:21.635Z,4.10
2019-01-28T12:15:50.085Z,4.10
2019-01-28T12:18:18.556Z,4.10
2019-01-28T12:20:53.547Z,4.10
2019-01-28T12:23:17.099Z,4.10
2019-01-28T12:25:45.503Z,4.00
2019-01-28T12:28:13.904Z,3.80
2019-01-28T12:30:42.280Z,3.70
2019-01-28T12:33:10.666Z,3.50
2019-01-28T12:35:39.037Z,3.50
2019-01-28T12:38:07.501Z,3.50
2019-01-28T12:40:35.997Z,3.50
2019-01-28T12:43:04.542Z,3.60
2019-01-28T12:45:35.936Z,3.70
2019-01-28T12:48:04.704Z,3.70
2019-01-28T12:50:33.247Z,3.60
2019-01-28T12:53:05.625Z,3.50
2019-01-28T12:55:34.110Z,3.50
2019-01-28T12:58:02.479Z,3.50
2019-01-28T13:00:34.150Z,3.50
2019-01-28T13:03:02.879Z,3.40
2019-01-28T13:05:31.311Z,3.40
2019-01-28T13:07:59.676Z,3.30
2019-01-28T13:10:32.246Z,3.30
2019-01-28T13:13:00.568Z,3.30
2019-01-28T13:15:40.189Z,3.30
2019-01-28T13:18:08.039Z,3.40
2019-01-28T13:20:36.411Z,3.40
2019-01-28T13:23:05.150Z,3.40
2019-01-28T13:25:35.772Z,3.30
2019-01-28T13:28:04.616Z,3.30
2019-01-28T13:30:35.779Z,3.20
2019-01-28T13:33:05.188Z,3.30
2019-01-28T13:35:33.675Z,3.20
2019-01-28T13:38:02.145Z,3.10
2019-01-28T13:40:38.053Z,3.00
2019-01-28T13:43:09.216Z,3.00
2019-01-28T13:45:38.782Z,3.00
2019-01-28T13:48:08.997Z,3.00
2019-01-28T13:50:37.476Z,2.90
2019-01-28T13:53:05.984Z,2.90
2019-01-28T13:55:34.431Z,2.80
2019-01-28T13:58:03.139Z,2.70
2019-01-28T14:00:37.323Z,2.70
2019-01-28T14:03:08.430Z,2.60
2019-01-28T14:05:36.817Z,2.50
2019-01-28T14:08:05.298Z,2.60
2019-01-28T14:10:33.728Z,2.50
2019-01-28T14:13:02.091Z,2.60
2019-01-28T14:15:35.819Z,2.60
2019-01-28T14:18:05.347Z,2.60
2019-01-28T14:20:36.069Z,2.50
2019-01-28T14:23:04.775Z,2.50
2019-01-28T14:25:33.554Z,2.50
2019-01-28T14:28:01.915Z,2.50
2019-01-28T14:30:35.977Z,2.50
2019-01-28T14:33:06.641Z,2.40
2019-01-28T14:35:35.176Z,2.40
2019-01-28T14:38:03.931Z,2.30
2019-01-28T14:40:32.427Z,2.40
2019-01-28T14:43:00.869Z,2.30
2019-01-28T15:32:11.754Z,2.00
2019-01-28T15:34:40.153Z,2.00
2019-01-28T15:37:08.525Z,2.00
2019-01-28T15:39:36.902Z,2.00
2019-01-28T15:42:05.313Z,1.90
2019-01-28T15:44:33.690Z,1.90
2019-01-28T15:47:02.086Z,1.90
2019-01-28T15:49:30.611Z,1.80
2019-01-28T15:52:00.088Z,1.70
2019-01-28T15:54:29.792Z,1.70
2019-01-28T15:56:58.217Z,1.70
2019-01-28T15:59:26.601Z,1.60
2019-01-28T16:01:54.977Z,1.60
2019-01-28T16:04:23.381Z,1.60
2019-01-28T16:06:51.754Z,1.60
2019-01-28T16:09:20.164Z,1.60
2019-01-28T16:11:48.541Z,1.60
2019-01-28T16:14:17.001Z,1.50
2019-01-28T16:16:45.383Z,1.50
2019-01-28T16:19:17.533Z,1.50
2019-01-28T16:21:47.320Z,1.50
2019-01-28T16:24:15.761Z,1.50
2019-01-28T16:26:44.128Z,1.50
2019-01-28T16:29:12.524Z,1.40
2019-01-28T16:31:40.906Z,1.40
2019-01-28T16:34:09.738Z,1.40
2019-01-28T16:36:38.145Z,1.40
2019-01-28T16:39:07.385Z,1.50
2019-01-28T16:41:35.761Z,1.50
2019-01-28T16:44:04.422Z,1.50
2019-01-28T16:46:32.805Z,1.50
2019-01-28T16:49:01.201Z,1.50
2019-01-28T16:51:29.660Z,1.40
2019-01-28T16:53:58.144Z,1.50
2019-01-28T16:56:26.438Z,1.50
2019-01-28T16:58:54.850Z,1.40
2019-01-28T17:01:23.235Z,1.50
2019-01-28T17:03:51.620Z,1.50
2019-01-28T17:06:20.013Z,1.40
2019-01-28T17:08:48.410Z,1.40
2019-01-28T17:11:16.869Z,1.50
2019-01-28T17:13:45.277Z,1.40
2019-01-28T17:16:13.733Z,1.40
2019-01-28T17:18:42.201Z,1.40
2019-01-28T17:21:10.789Z,1.50
2019-01-28T17:23:39.241Z,1.50
2019-01-28T17:26:07.592Z,1.50
2019-01-28T17:28:36.174Z,1.60
2019-01-28T17:31:06.458Z,1.70
2019-01-28T17:33:34.898Z,1.60
2019-01-28T17:36:03.409Z,1.60
2019-01-28T17:38:31.869Z,1.50
2019-01-28T17:41:00.264Z,1.50
2019-01-28T17:43:28.645Z,1.50
2019-01-28T17:45:57.150Z,1.50
2019-01-28T17:48:25.526Z,1.50
2019-01-28T17:50:53.985Z,1.40
2019-01-28T17:53:22.425Z,1.40
2019-01-28T17:55:51.980Z,1.40
2019-01-28T17:58:20.415Z,1.40
2019-01-28T18:00:50.422Z,1.40
2019-01-28T18:03:18.805Z,1.50
2019-01-28T18:05:48.244Z,1.50
2019-01-28T18:08:16.646Z,1.50
2019-01-28T18:10:45.054Z,1.50
2019-01-28T18:13:13.457Z,1.50
